createdAt,value
2023-04-11T02:29:53.296Z,0
2023-04-11T02:40:11.022Z,1178
2023-04-11T02:45:20.386Z,1188
2023-04-11T02:50:30.269Z,1229
2023-04-11T02:55:40.160Z,1236
2023-04-11T03:00:50.051Z,1238
2023-04-11T03:05:59.956Z,1257
2023-04-11T03:11:10.342Z,1287
2023-04-11T03:16:20.219Z,1258
2023-04-11T03:21:30.115Z,1250
2023-04-11T03:26:40.004Z,1218
2023-04-11T03:31:49.898Z,1219
2023-04-11T03:37:00.293Z,1215
2023-04-11T03:42:10.376Z,1208
2023-04-11T03:47:20.514Z,1207
2023-04-11T03:52:30.663Z,1201
2023-04-11T03:57:41.053Z,1183
2023-04-11T04:02:50.956Z,1192
2023-04-11T04:08:01.352Z,1186
2023-04-11T04:13:11.243Z,1170
2023-04-11T04:18:21.135Z,1148
2023-04-11T04:23:31.011Z,1144
2023-04-11T04:28:40.914Z,1142
2023-04-11T04:33:51.306Z,1126
2023-04-11T04:39:01.209Z,1111
2023-04-11T04:44:11.100Z,1129
2023-04-11T04:49:20.995Z,1140
2023-04-11T04:54:31.376Z,1144
2023-04-11T04:59:41.261Z,1157
2023-04-11T05:04:51.165Z,1154
2023-04-11T05:10:01.061Z,1154
2023-04-11T05:15:10.959Z,1133
2023-04-11T05:20:21.342Z,1146
2023-04-11T05:25:31.236Z,1135
2023-04-11T05:30:41.136Z,1140
2023-04-11T05:35:51.027Z,1131
2023-04-11T05:41:00.905Z,1125
2023-04-11T05:46:11.305Z,1131
2023-04-11T05:51:21.195Z,1147
2023-04-11T05:56:31.081Z,1136
2023-04-11T06:01:40.980Z,1160
2023-04-11T06:06:50.873Z,1179
2023-04-11T06:12:01.255Z,1198
2023-04-11T06:26:37.834Z,0
2023-04-11T06:31:47.654Z,1091
2023-04-11T06:36:56.557Z,1049
2023-04-11T06:42:05.440Z,1050
2023-04-11T06:47:14.343Z,939
2023-04-11T06:52:23.205Z,1055
2023-04-11T06:57:32.264Z,1085
2023-04-11T07:02:42.493Z,1101
2023-04-11T07:07:52.634Z,1118
2023-04-11T07:13:02.529Z,1098
2023-04-11T07:18:12.432Z,1110
2023-04-11T07:23:22.317Z,1034
2023-04-11T07:28:32.695Z,1049
2023-04-11T07:33:42.589Z,754
2023-04-11T07:38:52.493Z,659
2023-04-11T07:44:02.378Z,650
2023-04-11T07:49:12.278Z,664
2023-04-11T07:54:22.176Z,672
2023-04-11T07:59:32.569Z,673
2023-04-11T08:04:42.451Z,674
2023-04-11T08:09:52.000Z,679
2023-04-11T08:15:02.732Z,684
2023-04-11T08:20:12.630Z,690
2023-04-11T08:25:22.538Z,689
2023-04-11T08:30:32.414Z,694
2023-04-11T08:35:42.299Z,698
2023-04-11T08:40:52.197Z,691
2023-04-11T08:51:12.490Z,726
2023-04-11T08:56:22.380Z,743
2023-04-11T09:01:32.772Z,749
2023-04-11T09:06:42.166Z,768
2023-04-11T09:11:52.547Z,778
2023-04-11T09:17:02.425Z,792
2023-04-11T09:22:12.344Z,807
2023-04-11T09:27:22.212Z,816
2023-04-11T09:32:32.610Z,808
2023-04-11T09:37:42.513Z,806
2023-04-11T09:42:52.390Z,808
2023-04-11T09:48:02.779Z,821
2023-04-11T09:53:12.670Z,825
2023-04-11T09:58:22.570Z,812
2023-04-11T10:03:32.474Z,822
2023-04-11T10:13:52.242Z,837
2023-04-11T10:19:02.635Z,833
2023-04-11T10:24:12.532Z,834
